Munterville, Iowa
Current Conditions -  °F | °C
As of 8:53 PM on Friday 21 Nov 2014 (Local Time) from KOTM Reporting Station
Overcast Overcast  
Wind Chill: 27°   Ceiling: 1800
Heat Index: 35°   Visibility: 10mi
Dew Point: 23°   Wind: 10mph
Humidity: 61%   Direction: 170°S
Pressure: 30.1"   Gusts: NA
Location:  40.9822°N, 92.5833°W
Report Text: KOTM 220253Z AUTO 17009KT 10SM OVC018 02/M05 A3010 RMK AO2 UPB03E24 SLP203 P0000 60000 T00171050 56018
Loading
Personal Weather Stations






























Interactive Weather Map New forecast layout! Learn more

10-Day Weather Forecast

Advertisements
Track Severe Weather on mobile